createdAt,value
2015-09-23T00:00:06.359Z,94343
2015-09-23T00:00:25.094Z,94343
2015-09-23T00:00:43.563Z,94332
2015-09-23T00:01:02.362Z,94353
2015-09-23T00:01:21.003Z,94354
2015-09-23T00:01:39.534Z,94361
2015-09-23T00:01:58.006Z,94358
2015-09-23T00:02:16.787Z,94355
2015-09-23T00:02:35.162Z,94358
2015-09-23T00:02:53.649Z,94351
2015-09-23T00:03:12.055Z,94353
2015-09-23T00:03:30.477Z,94358
2015-09-23T00:03:48.836Z,94363
2015-09-23T00:04:07.745Z,94382
2015-09-23T00:04:26.230Z,94385
2015-09-23T00:04:44.605Z,94371
2015-09-23T00:05:03.045Z,94374
2015-09-23T00:05:21.514Z,94374
2015-09-23T00:05:40.123Z,94355
2015-09-23T00:05:58.658Z,94354
2015-09-23T00:06:17.080Z,94354
2015-09-23T00:06:35.470Z,94356
2015-09-23T00:06:54.051Z,94361
2015-09-23T00:07:12.692Z,94375
2015-09-23T00:07:31.208Z,94380
2015-09-23T00:07:49.786Z,94378
2015-09-23T00:08:08.256Z,94385
2015-09-23T00:08:26.803Z,94393
2015-09-23T00:08:45.163Z,94404
2015-09-23T00:09:03.681Z,94402
2015-09-23T00:09:22.056Z,94393
2015-09-23T00:09:40.791Z,94402
2015-09-23T00:09:59.294Z,94407
2015-09-23T00:10:17.762Z,94407
2015-09-23T00:10:36.341Z,94393
2015-09-23T00:10:55.012Z,94388
2015-09-23T00:11:13.686Z,94378
2015-09-23T00:11:32.327Z,94375
2015-09-23T00:11:50.780Z,94378
2015-09-23T00:12:09.408Z,94362
2015-09-23T00:12:28.096Z,94357
2015-09-23T00:12:46.564Z,94347
2015-09-23T00:13:05.052Z,94350
2015-09-23T00:13:23.833Z,94352
2015-09-23T00:13:42.286Z,94365
2015-09-23T00:14:00.929Z,94355
2015-09-23T00:14:19.304Z,94368
2015-09-23T00:14:37.913Z,94355
2015-09-23T00:14:56.772Z,94362
2015-09-23T00:15:15.229Z,94365
2015-09-23T00:15:33.635Z,94373
2015-09-23T00:15:52.447Z,94376
2015-09-23T00:16:11.028Z,94370
2015-09-23T00:16:29.388Z,94392
2015-09-23T00:16:47.810Z,94395
2015-09-23T00:17:06.188Z,94395
2015-09-23T00:17:24.578Z,94392
2015-09-23T00:17:43.047Z,94382
2015-09-23T00:18:01.469Z,94392
2015-09-23T00:18:19.877Z,94381
2015-09-23T00:18:38.830Z,94395
2015-09-23T00:18:57.237Z,94400
2015-09-23T00:19:15.599Z,94389
2015-09-23T00:19:34.146Z,94392
2015-09-23T00:19:52.536Z,94378
2015-09-23T00:20:10.946Z,94378
2015-09-23T00:20:29.477Z,94395
2015-09-23T00:20:47.883Z,94395
2015-09-23T00:21:06.276Z,94395
2015-09-23T00:21:24.916Z,94395
2015-09-23T00:21:43.604Z,94403
2015-09-23T00:22:02.463Z,94408
2015-09-23T00:22:21.357Z,94419
2015-09-23T00:22:39.794Z,94416
2015-09-23T00:22:58.232Z,94411
2015-09-23T00:23:16.766Z,94397
2015-09-23T00:23:35.282Z,94416
2015-09-23T00:23:53.688Z,94400
2015-09-23T00:24:12.097Z,94400
2015-09-23T00:24:30.660Z,94411
2015-09-23T00:24:49.097Z,94411
2015-09-23T00:25:07.816Z,94411
2015-09-23T00:25:26.178Z,94417
2015-09-23T00:25:44.710Z,94406
2015-09-23T00:26:03.428Z,94411
2015-09-23T00:26:21.869Z,94411
2015-09-23T00:26:40.463Z,94409
2015-09-23T00:26:59.181Z,94412
2015-09-23T00:27:17.605Z,94401
2015-09-23T00:27:36.012Z,94404
2015-09-23T00:27:54.746Z,94412
2015-09-23T00:28:13.170Z,94412
2015-09-23T00:28:31.592Z,94409
2015-09-23T00:28:49.982Z,94420
2015-09-23T00:29:08.592Z,94415
2015-09-23T00:29:27.063Z,94423
2015-09-23T00:29:45.673Z,94423
2015-09-23T00:30:04.235Z,94423
2015-09-23T00:30:23.004Z,94436
2015-09-23T00:30:41.488Z,94425
2015-09-23T00:31:00.238Z,94409
2015-09-23T00:31:18.835Z,94412
2015-09-23T00:31:37.351Z,94415
2015-09-23T00:31:55.944Z,94418
2015-09-23T00:32:14.494Z,94415
2015-09-23T00:32:32.932Z,94425
2015-09-23T00:32:51.510Z,94407
2015-09-23T00:33:09.885Z,94410
2015-09-23T00:33:28.309Z,94404
2015-09-23T00:33:46.965Z,94407
2015-09-23T00:34:05.512Z,94407
2015-09-23T00:34:24.062Z,94396
2015-09-23T00:34:42.562Z,94383
2015-09-23T00:35:01.171Z,94386
2015-09-23T00:35:19.814Z,94396
2015-09-23T00:35:38.408Z,94421
2015-09-23T00:35:57.158Z,94410
2015-09-23T00:36:15.751Z,94401
2015-09-23T00:36:34.115Z,94407
2015-09-23T00:36:52.568Z,94408
2015-09-23T00:37:10.927Z,94402
2015-09-23T00:37:29.367Z,94407
2015-09-23T00:37:48.070Z,94424
2015-09-23T00:38:06.648Z,94439
2015-09-23T00:38:25.167Z,94413
2015-09-23T00:38:43.745Z,94427
2015-09-23T00:39:02.292Z,94429
2015-09-23T00:39:20.904Z,94426
2015-09-23T00:39:39.357Z,94429
2015-09-23T00:39:57.716Z,94419
2015-09-23T00:40:16.357Z,94427
2015-09-23T00:40:34.876Z,94429
2015-09-23T00:40:53.391Z,94434
2015-09-23T00:41:11.829Z,94437
2015-09-23T00:41:30.471Z,94453
2015-09-23T00:41:48.846Z,94442
2015-09-23T00:42:07.315Z,94434
2015-09-23T00:42:25.895Z,94440
2015-09-23T00:42:44.427Z,94440
2015-09-23T00:43:02.942Z,94440
2015-09-23T00:43:21.477Z,94432
2015-09-23T00:43:39.852Z,94437
2015-09-23T00:43:58.477Z,94453
2015-09-23T00:44:16.868Z,94453
2015-09-23T00:44:35.292Z,94453
2015-09-23T00:44:53.964Z,94459
2015-09-23T00:45:12.526Z,94453
2015-09-23T00:45:30.889Z,94451
2015-09-23T00:45:49.670Z,94451
2015-09-23T00:46:08.139Z,94459
2015-09-23T00:46:26.517Z,94472
2015-09-23T00:46:44.907Z,94483
2015-09-23T00:47:03.251Z,94472
2015-09-23T00:47:21.860Z,94486
2015-09-23T00:47:40.362Z,94483
2015-09-23T00:47:58.769Z,94481
2015-09-23T00:48:17.159Z,94494
2015-09-23T00:48:35.615Z,94473
2015-09-23T00:48:54.256Z,94476
2015-09-23T00:49:13.022Z,94470
2015-09-23T00:49:31.446Z,94473
2015-09-23T00:49:50.008Z,94486
2015-09-23T00:50:08.399Z,94494
2015-09-23T00:50:26.961Z,94502
2015-09-23T00:50:45.340Z,94494
2015-09-23T00:51:03.762Z,94497
2015-09-23T00:51:22.168Z,94492
2015-09-23T00:51:40.608Z,94486
2015-09-23T00:51:59.139Z,94505
2015-09-23T00:52:17.639Z,94494
2015-09-23T00:52:36.017Z,94500
2015-09-23T00:52:54.673Z,94502
2015-09-23T00:53:13.173Z,94500
2015-09-23T00:53:31.583Z,94500
2015-09-23T00:53:49.958Z,94497
2015-09-23T00:54:08.442Z,94497
2015-09-23T00:54:27.176Z,94502
2015-09-23T00:54:45.819Z,94510
2015-09-23T00:55:04.272Z,94505
2015-09-23T00:55:22.741Z,94513
2015-09-23T00:55:41.525Z,94502
2015-09-23T00:56:00.150Z,94503
2015-09-23T00:56:18.619Z,94497
2015-09-23T00:56:37.512Z,94502
2015-09-23T00:56:55.887Z,94508
2015-09-23T00:57:14.356Z,94516
2015-09-23T00:57:32.778Z,94517
2015-09-23T00:57:51.359Z,94516
2015-09-23T00:58:10.140Z,94510
2015-09-23T00:58:28.594Z,94520
2015-09-23T00:58:46.986Z,94520
2015-09-23T00:59:05.424Z,94528
2015-09-23T00:59:23.846Z,94539
2015-09-23T00:59:42.224Z,94542
2015-09-23T01:00:00.708Z,94555
2015-09-23T01:00:19.177Z,94552
2015-09-23T01:00:37.727Z,94557
2015-09-23T01:00:56.258Z,94544
2015-09-23T01:01:14.930Z,94528
2015-09-23T01:01:33.352Z,94520
2015-09-23T01:01:51.713Z,94529
2015-09-23T01:02:10.166Z,94516
2015-09-23T01:02:28.525Z,94490
2015-09-23T01:02:47.028Z,94487
2015-09-23T01:03:05.607Z,94479
2015-09-23T01:03:23.982Z,94498
2015-09-23T01:03:42.390Z,94492
2015-09-23T01:04:00.796Z,94498
2015-09-23T01:04:19.155Z,94503
2015-09-23T01:04:37.738Z,94493
2015-09-23T01:04:56.347Z,94477
2015-09-23T01:05:15.019Z,94485
2015-09-23T01:05:33.597Z,94498
2015-09-23T01:05:52.052Z,94498
2015-09-23T01:06:10.474Z,94506
2015-09-23T01:06:28.911Z,94501
2015-09-23T01:06:47.383Z,94503
2015-09-23T01:07:06.180Z,94493
2015-09-23T01:07:24.383Z,94487
2015-09-23T01:07:43.136Z,94501
2015-09-23T01:08:01.636Z,94487
2015-09-23T01:08:20.152Z,94490
2015-09-23T01:08:38.699Z,94498
2015-09-23T01:08:57.107Z,94504
2015-09-23T01:09:15.669Z,94487
2015-09-23T01:09:34.060Z,94482
2015-09-23T01:09:52.579Z,94480
2015-09-23T01:10:11.172Z,94474
2015-09-23T01:10:29.547Z,94482
2015-09-23T01:10:48.113Z,94474
2015-09-23T01:11:06.675Z,94474
2015-09-23T01:11:25.175Z,94483
2015-09-23T01:11:43.882Z,94477
2015-09-23T01:12:02.397Z,94480
2015-09-23T01:12:20.975Z,94478
2015-09-23T01:12:39.788Z,94488
2015-09-23T01:12:58.227Z,94483
2015-09-23T01:13:16.899Z,94504
2015-09-23T01:13:35.852Z,94515
2015-09-23T01:13:54.402Z,94507
2015-09-23T01:14:12.840Z,94517
2015-09-23T01:14:31.308Z,94504
2015-09-23T01:14:49.843Z,94512
2015-09-23T01:15:08.405Z,94510
2015-09-23T01:15:26.921Z,94517
2015-09-23T01:15:45.299Z,94515
2015-09-23T01:16:03.877Z,94507
2015-09-23T01:16:22.236Z,94535
2015-09-23T01:16:40.596Z,94530
2015-09-23T01:16:59.441Z,94522
2015-09-23T01:17:18.051Z,94525
2015-09-23T01:17:36.410Z,94499
2015-09-23T01:17:55.132Z,94497
2015-09-23T01:18:13.538Z,94513
2015-09-23T01:18:32.007Z,94515
2015-09-23T01:18:50.494Z,94517
2015-09-23T01:19:08.947Z,94512
2015-09-23T01:19:27.572Z,94519
2015-09-23T01:19:46.121Z,94533
2015-09-23T01:20:03.887Z,94525
2015-09-23T01:20:22.324Z,94522
2015-09-23T01:20:40.699Z,94510
2015-09-23T01:20:59.281Z,94520
2015-09-23T01:21:17.656Z,94510
2015-09-23T01:21:36.093Z,94515
2015-09-23T01:21:54.627Z,94517
2015-09-23T01:22:13.080Z,94510
2015-09-23T01:22:31.518Z,94513
2015-09-23T01:22:50.129Z,94517
2015-09-23T01:23:08.551Z,94519
2015-09-23T01:23:26.801Z,94522
2015-09-23T01:23:45.239Z,94522
2015-09-23T01:24:03.898Z,94522
2015-09-23T01:24:21.695Z,94517
2015-09-23T01:24:40.398Z,94522
2015-09-23T01:24:58.838Z,94536
2015-09-23T01:25:17.323Z,94531
2015-09-23T01:25:35.729Z,94528
2015-09-23T01:25:54.184Z,94549
2015-09-23T01:26:12.559Z,94546
2015-09-23T01:26:31.012Z,94557
2015-09-23T01:26:49.434Z,94549
2015-09-23T01:27:08.015Z,94552
2015-09-23T01:27:26.547Z,94549
2015-09-23T01:27:45.203Z,94552
2015-09-23T01:28:03.675Z,94554
2015-09-23T01:28:22.096Z,94546
2015-09-23T01:28:40.456Z,94552
2015-09-23T01:28:59.098Z,94541
2015-09-23T01:29:17.645Z,94538
2015-09-23T01:29:36.020Z,94555
2015-09-23T01:29:54.539Z,94544
2015-09-23T01:30:12.976Z,94547
2015-09-23T01:30:31.508Z,94560
2015-09-23T01:30:49.914Z,94563
2015-09-23T01:31:08.604Z,94558
2015-09-23T01:31:27.073Z,94547
2015-09-23T01:31:45.589Z,94547
2015-09-23T01:32:04.264Z,94549
2015-09-23T01:32:22.482Z,94539
2015-09-23T01:32:40.889Z,94525
2015-09-23T01:32:59.392Z,94541
2015-09-23T01:33:18.329Z,94534
2015-09-23T01:33:36.751Z,94534
2015-09-23T01:33:55.128Z,94533
2015-09-23T01:34:13.675Z,94520
2015-09-23T01:34:32.066Z,94534
2015-09-23T01:34:50.519Z,94523
2015-09-23T01:35:09.084Z,94517
2015-09-23T01:35:27.537Z,94520
2015-09-23T01:35:46.178Z,94517
2015-09-23T01:36:04.664Z,94544
2015-09-23T01:36:23.242Z,94539
2015-09-23T01:36:41.946Z,94547
2015-09-23T01:37:00.575Z,94544
2015-09-23T01:37:18.934Z,94552
2015-09-23T01:37:37.543Z,94552
2015-09-23T01:37:56.075Z,94554
2015-09-23T01:38:14.467Z,94549
2015-09-23T01:38:32.983Z,94560
2015-09-23T01:38:51.873Z,94552
2015-09-23T01:39:10.423Z,94538
2015-09-23T01:39:28.955Z,94539
2015-09-23T01:39:47.330Z,94528
2015-09-23T01:40:05.708Z,94525
2015-09-23T01:40:24.176Z,94533
2015-09-23T01:40:42.567Z,94542
2015-09-23T01:41:01.051Z,94539
2015-09-23T01:41:19.413Z,94536
2015-09-23T01:41:37.881Z,94555
2015-09-23T01:41:56.381Z,94550
2015-09-23T01:42:14.822Z,94549
2015-09-23T01:42:33.181Z,94558
2015-09-23T01:42:51.775Z,94539
2015-09-23T01:43:10.184Z,94542
2015-09-23T01:43:28.981Z,94536
2015-09-23T01:43:47.559Z,94525
2015-09-23T01:44:06.155Z,94539
2015-09-23T01:44:24.718Z,94534
2015-09-23T01:44:43.405Z,94531
2015-09-23T01:45:01.811Z,94542
2015-09-23T01:45:20.175Z,94544
2015-09-23T01:45:38.659Z,94542
2015-09-23T01:45:57.143Z,94534
2015-09-23T01:46:15.600Z,94531
2015-09-23T01:46:34.006Z,94524
2015-09-23T01:46:52.428Z,94514
2015-09-23T01:47:10.805Z,94529
2015-09-23T01:47:29.555Z,94526
2015-09-23T01:47:48.164Z,94521
2015-09-23T01:48:06.461Z,94521
2015-09-23T01:48:24.933Z,94529
2015-09-23T01:48:43.480Z,94521
2015-09-23T01:49:02.136Z,94519
2015-09-23T01:49:20.497Z,94517
2015-09-23T01:49:39.044Z,94517
2015-09-23T01:49:57.810Z,94527
2015-09-23T01:50:16.641Z,94530
2015-09-23T01:50:35.125Z,94524
2015-09-23T01:50:53.500Z,94532
2015-09-23T01:51:11.969Z,94524
2015-09-23T01:51:30.706Z,94535
2015-09-23T01:51:49.206Z,94524
2015-09-23T01:52:07.613Z,94538
2015-09-23T01:52:26.115Z,94540
2015-09-23T01:52:44.583Z,94543
2015-09-23T01:53:03.411Z,94540
2015-09-23T01:53:21.789Z,94548
2015-09-23T01:53:40.211Z,94540
2015-09-23T01:53:58.696Z,94538
2015-09-23T01:54:17.230Z,94532
2015-09-23T01:54:35.621Z,94530
2015-09-23T01:54:54.230Z,94543
2015-09-23T01:55:12.777Z,94554
2015-09-23T01:55:31.264Z,94543
2015-09-23T01:55:49.780Z,94538
2015-09-23T01:56:08.389Z,94527
2015-09-23T01:56:26.970Z,94533
2015-09-23T01:56:45.689Z,94544
2015-09-23T01:57:04.220Z,94527
2015-09-23T01:57:22.769Z,94536
2015-09-23T01:57:41.129Z,94533
2015-09-23T01:57:59.816Z,94538
2015-09-23T01:58:18.585Z,94536
2015-09-23T01:58:37.303Z,94525
2015-09-23T01:58:55.741Z,94541
2015-09-23T01:59:14.100Z,94541
2015-09-23T01:59:32.540Z,94536
2015-09-23T01:59:50.993Z,94531
2015-09-23T02:00:09.415Z,94533
2015-09-23T02:00:27.902Z,94541
2015-09-23T02:00:46.293Z,94541
2015-09-23T02:01:04.824Z,94539
2015-09-23T02:01:23.483Z,94541
2015-09-23T02:01:41.905Z,94539
2015-09-23T02:02:00.390Z,94531
2015-09-23T02:02:19.018Z,94530
2015-09-23T02:02:37.377Z,94539
2015-09-23T02:02:55.830Z,94544
2015-09-23T02:03:14.408Z,94547
2015-09-23T02:03:33.052Z,94542
2015-09-23T02:03:51.458Z,94547
2015-09-23T02:04:10.021Z,94533
2015-09-23T02:04:28.444Z,94555
2015-09-23T02:04:46.866Z,94552
2015-09-23T02:05:05.273Z,94555
2015-09-23T02:05:23.963Z,94550
2015-09-23T02:05:42.369Z,94544
2015-09-23T02:06:00.994Z,94549
2015-09-23T02:06:19.479Z,94558
2015-09-23T02:06:37.856Z,94541
2015-09-23T02:06:56.371Z,94550
2015-09-23T02:07:14.824Z,94555
2015-09-23T02:07:33.656Z,94550
2015-09-23T02:07:52.124Z,94544
2015-09-23T02:08:10.718Z,94555
2015-09-23T02:08:29.377Z,94550
2015-09-23T02:08:47.815Z,94548
2015-09-23T02:09:06.330Z,94550
2015-09-23T02:09:24.818Z,94555
2015-09-23T02:09:43.224Z,94550
2015-09-23T02:10:01.630Z,94550
2015-09-23T02:10:20.240Z,94542
2015-09-23T02:10:38.726Z,94539
2015-09-23T02:10:57.148Z,94542
2015-09-23T02:11:15.492Z,94547
2015-09-23T02:11:33.870Z,94550
2015-09-23T02:11:52.432Z,94550
2015-09-23T02:12:10.885Z,94542
2015-09-23T02:12:29.420Z,94547
2015-09-23T02:12:48.216Z,94553
2015-09-23T02:13:07.091Z,94552
2015-09-23T02:13:25.732Z,94531
2015-09-23T02:13:44.453Z,94539
2015-09-23T02:14:02.984Z,94539
2015-09-23T02:14:20.672Z,94542
2015-09-23T02:14:39.440Z,94545
2015-09-23T02:14:58.003Z,94550
2015-09-23T02:15:16.815Z,94556
2015-09-23T02:15:35.241Z,94563
2015-09-23T02:15:53.804Z,94547
2015-09-23T02:16:12.335Z,94552
2015-09-23T02:16:30.946Z,94555
2015-09-23T02:16:49.384Z,94569
2015-09-23T02:17:07.962Z,94560
2015-09-23T02:17:26.352Z,94572
2015-09-23T02:17:44.716Z,94569
2015-09-23T02:18:03.091Z,94566
2015-09-23T02:18:21.794Z,94563
2015-09-23T02:18:40.218Z,94563
2015-09-23T02:18:58.608Z,94569
2015-09-23T02:19:17.249Z,94561
2015-09-23T02:19:35.690Z,94553
2015-09-23T02:19:54.221Z,94561
2015-09-23T02:20:12.877Z,94569
2015-09-23T02:20:31.252Z,94561
2015-09-23T02:20:49.630Z,94561
2015-09-23T02:21:08.036Z,94569
2015-09-23T02:21:26.552Z,94561
2015-09-23T02:21:45.007Z,94561
2015-09-23T02:22:03.538Z,94561
2015-09-23T02:22:22.070Z,94555
2015-09-23T02:22:40.463Z,94558
2015-09-23T02:22:59.088Z,94556
2015-09-23T02:23:17.604Z,94558
2015-09-23T02:23:36.010Z,94561
2015-09-23T02:23:54.607Z,94563
2015-09-23T02:24:13.201Z,94564
2015-09-23T02:24:31.622Z,94555
2015-09-23T02:24:50.172Z,94561
2015-09-23T02:25:08.657Z,94561
2015-09-23T02:25:27.188Z,94553
2015-09-23T02:25:45.565Z,94556
2015-09-23T02:26:03.940Z,94555
2015-09-23T02:26:22.581Z,94537
2015-09-23T02:26:40.956Z,94540
2015-09-23T02:26:59.349Z,94548
2015-09-23T02:27:17.615Z,94561
2015-09-23T02:27:36.084Z,94545
2015-09-23T02:27:54.524Z,94545
2015-09-23T02:28:13.087Z,94535
2015-09-23T02:28:31.743Z,94538
2015-09-23T02:28:50.182Z,94548
2015-09-23T02:29:08.964Z,94542
2015-09-23T02:29:27.432Z,94553
2015-09-23T02:29:45.999Z,94545
2015-09-23T02:30:04.686Z,94545
2015-09-23T02:30:23.046Z,94551
2015-09-23T02:30:41.499Z,94540
2015-09-23T02:30:59.938Z,94532
2015-09-23T02:31:18.485Z,94538
2015-09-23T02:31:37.016Z,94538
2015-09-23T02:31:55.676Z,94546
2015-09-23T02:32:14.066Z,94538
2015-09-23T02:32:32.457Z,94535
2015-09-23T02:32:50.896Z,94538
2015-09-23T02:33:09.256Z,94538
2015-09-23T02:33:27.662Z,94538
2015-09-23T02:33:46.334Z,94527
2015-09-23T02:34:04.774Z,94530
2015-09-23T02:34:23.290Z,94541
2015-09-23T02:34:41.806Z,94538
2015-09-23T02:35:00.340Z,94525
2015-09-23T02:35:18.918Z,94543
2015-09-23T02:35:37.277Z,94543
2015-09-23T02:35:55.686Z,94543
2015-09-23T02:36:14.358Z,94554
2015-09-23T02:36:32.795Z,94538
2015-09-23T02:36:51.595Z,94532
2015-09-23T02:37:09.954Z,94535
2015-09-23T02:37:28.517Z,94530
2015-09-23T02:37:47.064Z,94530
2015-09-23T02:38:05.660Z,94538
2015-09-23T02:38:24.035Z,94535
2015-09-23T02:38:42.660Z,94540
2015-09-23T02:39:01.117Z,94543
2015-09-23T02:39:19.742Z,94538
2015-09-23T02:39:38.507Z,94549
2015-09-23T02:39:57.134Z,94543
2015-09-23T02:40:15.697Z,94538
2015-09-23T02:40:34.369Z,94546
2015-09-23T02:40:52.931Z,94533
2015-09-23T02:41:11.576Z,94533
2015-09-23T02:41:29.998Z,94538
2015-09-23T02:41:48.654Z,94536
2015-09-23T02:42:07.218Z,94522
2015-09-23T02:42:25.750Z,94530
2015-09-23T02:42:44.109Z,94538
2015-09-23T02:43:02.518Z,94525
2015-09-23T02:43:20.987Z,94538
2015-09-23T02:43:39.549Z,94541
2015-09-23T02:43:58.114Z,94543
2015-09-23T02:44:16.505Z,94546
2015-09-23T02:44:34.911Z,94546
2015-09-23T02:44:53.395Z,94554
2015-09-23T02:45:11.804Z,94552
2015-09-23T02:45:30.289Z,94554
2015-09-23T02:45:48.883Z,94552
2015-09-23T02:46:07.776Z,94552
2015-09-23T02:46:26.167Z,94549
2015-09-23T02:46:44.839Z,94541
2015-09-23T02:47:03.325Z,94552
2015-09-23T02:47:21.981Z,94544
2015-09-23T02:47:40.434Z,94538
2015-09-23T02:47:59.094Z,94549
2015-09-23T02:48:17.562Z,94546
2015-09-23T02:48:36.016Z,94546
2015-09-23T02:48:54.375Z,94533
2015-09-23T02:49:13.003Z,94536
2015-09-23T02:49:31.487Z,94538
2015-09-23T02:49:50.081Z,94535
2015-09-23T02:50:08.772Z,94544
2015-09-23T02:50:27.615Z,94546
2015-09-23T02:50:46.037Z,94541
2015-09-23T02:51:04.539Z,94544
2015-09-23T02:51:23.024Z,94546
2015-09-23T02:51:41.586Z,94546
2015-09-23T02:52:00.211Z,94562
2015-09-23T02:52:18.637Z,94565
2015-09-23T02:52:37.231Z,94573
2015-09-23T02:52:55.231Z,94565
2015-09-23T02:53:13.639Z,94562
2015-09-23T02:53:32.014Z,94567
2015-09-23T02:53:50.623Z,94572
2015-09-23T02:54:09.048Z,94572
2015-09-23T02:54:27.673Z,94564
2015-09-23T02:54:46.126Z,94567
2015-09-23T02:55:04.489Z,94562
2015-09-23T02:55:23.114Z,94573
2015-09-23T02:55:41.504Z,94572
2015-09-23T02:56:00.067Z,94572
2015-09-23T02:56:18.444Z,94578
2015-09-23T02:56:37.022Z,94581
2015-09-23T02:56:55.616Z,94565
2015-09-23T02:57:14.041Z,94568
2015-09-23T02:57:32.400Z,94560
2015-09-23T02:57:50.994Z,94554
2015-09-23T02:58:10.121Z,94570
2015-09-23T02:58:28.511Z,94578
2015-09-23T02:58:46.933Z,94573
2015-09-23T02:59:05.308Z,94584
2015-09-23T02:59:23.858Z,94584
2015-09-23T02:59:42.280Z,94578
2015-09-23T03:00:00.655Z,94584
2015-09-23T03:00:19.283Z,94589
2015-09-23T03:00:37.720Z,94578
2015-09-23T03:00:56.095Z,94576
2015-09-23T03:01:14.755Z,94573
2015-09-23T03:01:33.255Z,94587
2015-09-23T03:01:51.770Z,94568
2015-09-23T03:02:10.258Z,94579
2015-09-23T03:02:28.742Z,94576
2015-09-23T03:02:47.289Z,94573
2015-09-23T03:03:05.695Z,94570
2015-09-23T03:03:24.103Z,94584
2015-09-23T03:03:42.572Z,94557
2015-09-23T03:04:01.213Z,94571
2015-09-23T03:04:19.872Z,94579
2015-09-23T03:04:38.325Z,94573
2015-09-23T03:04:56.700Z,94568
2015-09-23T03:05:15.187Z,94547
2015-09-23T03:05:33.858Z,94555
2015-09-23T03:05:52.421Z,94541
2015-09-23T03:06:10.955Z,94549
2015-09-23T03:06:29.315Z,94552
2015-09-23T03:06:47.986Z,94539
2015-09-23T03:07:06.440Z,94536
2015-09-23T03:07:24.943Z,94544
2015-09-23T03:07:43.458Z,94552
2015-09-23T03:08:01.818Z,94555
2015-09-23T03:08:20.242Z,94547
2015-09-23T03:08:38.649Z,94550
2015-09-23T03:08:57.039Z,94555
2015-09-23T03:09:15.682Z,94550
2015-09-23T03:09:34.073Z,94560
2015-09-23T03:09:52.526Z,94553
2015-09-23T03:10:11.151Z,94560
2015-09-23T03:10:29.576Z,94547
2015-09-23T03:10:48.044Z,94556
2015-09-23T03:11:06.669Z,94555
2015-09-23T03:11:25.250Z,94561
2015-09-23T03:11:43.719Z,94558
2015-09-23T03:12:02.219Z,94572
2015-09-23T03:12:20.612Z,94564
2015-09-23T03:12:39.081Z,94553
2015-09-23T03:12:57.456Z,94553
2015-09-23T03:13:15.865Z,94569
2015-09-23T03:13:34.287Z,94564
2015-09-23T03:13:52.693Z,94561
2015-09-23T03:14:11.084Z,94561
2015-09-23T03:14:29.462Z,94561
2015-09-23T03:14:47.899Z,94567
2015-09-23T03:15:06.399Z,94580
2015-09-23T03:15:25.058Z,94569
2015-09-23T03:15:43.527Z,94569
2015-09-23T03:16:02.340Z,94578
2015-09-23T03:16:20.702Z,94580
2015-09-23T03:16:39.061Z,94575
2015-09-23T03:16:57.421Z,94567
2015-09-23T03:17:15.798Z,94586
2015-09-23T03:17:34.204Z,94589
2015-09-23T03:17:52.610Z,94575
2015-09-23T03:18:11.157Z,94581
2015-09-23T03:18:29.566Z,94564
2015-09-23T03:18:48.144Z,94578
2015-09-23T03:19:06.504Z,94573
2015-09-23T03:19:25.163Z,94584
2015-09-23T03:19:43.647Z,94578
2015-09-23T03:20:02.194Z,94581
2015-09-23T03:20:20.821Z,94586
2015-09-23T03:20:39.228Z,94589
2015-09-23T03:20:57.774Z,94594
2015-09-23T03:21:16.415Z,94591
2015-09-23T03:21:34.887Z,94575
2015-09-23T03:21:53.465Z,94583
2015-09-23T03:22:12.121Z,94594
2015-09-23T03:22:30.562Z,94581
2015-09-23T03:22:49.234Z,94591
2015-09-23T03:23:08.093Z,94592
2015-09-23T03:23:26.564Z,94581
2015-09-23T03:23:44.970Z,94573
2015-09-23T03:24:03.782Z,94581
2015-09-23T03:24:22.317Z,94584
2015-09-23T03:24:40.832Z,94584
2015-09-23T03:24:59.520Z,94584
2015-09-23T03:25:17.879Z,94586
2015-09-23T03:25:36.413Z,94592
2015-09-23T03:25:55.054Z,94581
2015-09-23T03:26:13.429Z,94584
2015-09-23T03:26:31.853Z,94586
2015-09-23T03:26:50.228Z,94589
2015-09-23T03:27:08.665Z,94589
2015-09-23T03:27:27.106Z,94587
2015-09-23T03:27:45.684Z,94584
2015-09-23T03:28:04.372Z,94584
2015-09-23T03:28:22.796Z,94592
2015-09-23T03:28:41.234Z,94570
2015-09-23T03:28:59.718Z,94589
2015-09-23T03:29:18.140Z,94584
2015-09-23T03:29:36.503Z,94587
2015-09-23T03:29:55.065Z,94584
2015-09-23T03:30:13.440Z,94571
2015-09-23T03:30:31.802Z,94568
2015-09-23T03:30:50.271Z,94558
2015-09-23T03:31:08.834Z,94557
2015-09-23T03:31:27.351Z,94574
2015-09-23T03:31:45.758Z,94579
2015-09-23T03:32:04.320Z,94569
2015-09-23T03:32:22.820Z,94569
2015-09-23T03:32:41.417Z,94571
2015-09-23T03:32:59.901Z,94571
2015-09-23T03:33:18.354Z,94571
2015-09-23T03:33:36.904Z,94577
2015-09-23T03:33:55.279Z,94593
2015-09-23T03:34:13.685Z,94598
2015-09-23T03:34:32.078Z,94579
2015-09-23T03:34:50.547Z,94579
2015-09-23T03:35:09.047Z,94590
2015-09-23T03:35:27.453Z,94587
2015-09-23T03:35:46.253Z,94600
2015-09-23T03:36:04.894Z,94592
2015-09-23T03:36:23.425Z,94565
2015-09-23T03:36:42.053Z,94582
2015-09-23T03:37:00.600Z,94584
2015-09-23T03:37:19.240Z,94586
2015-09-23T03:37:37.664Z,94583
2015-09-23T03:37:56.320Z,94595
2015-09-23T03:38:14.867Z,94597
2015-09-23T03:38:33.245Z,94595
2015-09-23T03:38:51.823Z,94597
2015-09-23T03:39:10.230Z,94600
2015-09-23T03:39:28.589Z,94594
2015-09-23T03:39:47.076Z,94597
2015-09-23T03:40:05.545Z,94592
2015-09-23T03:40:23.967Z,94595
2015-09-23T03:40:42.408Z,94589
2015-09-23T03:41:00.845Z,94597
2015-09-23T03:41:19.454Z,94602
2015-09-23T03:41:38.176Z,94595
2015-09-23T03:41:56.770Z,94577
2015-09-23T03:42:15.301Z,94579
2015-09-23T03:42:33.645Z,94587
2015-09-23T03:42:52.225Z,94595
2015-09-23T03:43:10.584Z,94595
2015-09-23T03:43:29.209Z,94597
2015-09-23T03:43:47.775Z,94600
2015-09-23T03:44:06.275Z,94601
2015-09-23T03:44:24.837Z,94600
2015-09-23T03:44:43.434Z,94600
2015-09-23T03:45:02.200Z,94592
2015-09-23T03:45:20.872Z,94590
2015-09-23T03:45:39.405Z,94598
2015-09-23T03:45:57.811Z,94598
2015-09-23T03:46:16.342Z,94611
2015-09-23T03:46:34.764Z,94608
2015-09-23T03:46:53.470Z,94613
2015-09-23T03:47:12.142Z,94613
2015-09-23T03:47:30.783Z,94614
2015-09-23T03:47:49.473Z,94600
2015-09-23T03:48:07.348Z,94601
2015-09-23T03:48:25.723Z,94588
2015-09-23T03:48:44.242Z,94593
2015-09-23T03:49:02.883Z,94598
2015-09-23T03:49:21.336Z,94588
2015-09-23T03:49:39.820Z,94590
2015-09-23T03:49:58.447Z,94598
2015-09-23T03:50:17.228Z,94588
2015-09-23T03:50:35.713Z,94593
2015-09-23T03:50:54.294Z,94588
2015-09-23T03:51:12.919Z,94585
2015-09-23T03:51:31.388Z,94585
2015-09-23T03:51:49.891Z,94577
2015-09-23T03:52:08.281Z,94585
2015-09-23T03:52:26.953Z,94583
2015-09-23T03:52:45.424Z,94578
2015-09-23T03:53:03.783Z,94570
2015-09-23T03:53:22.158Z,94575
2015-09-23T03:53:40.533Z,94573
2015-09-23T03:53:59.068Z,94565
2015-09-23T03:54:17.521Z,94567
2015-09-23T03:54:35.974Z,94565
2015-09-23T03:54:54.383Z,94565
2015-09-23T03:55:12.586Z,94573
2015-09-23T03:55:31.336Z,94567
2015-09-23T03:55:49.792Z,94559
2015-09-23T03:56:08.245Z,94549
2015-09-23T03:56:26.964Z,94543
2015-09-23T03:56:45.339Z,94546
2015-09-23T03:57:03.905Z,94540
2015-09-23T03:57:22.405Z,94557
2015-09-23T03:57:40.811Z,94541
2015-09-23T03:57:59.422Z,94551
2015-09-23T03:58:17.875Z,94554